createdAt,value
2023-01-15T00:00:07.441Z,77.19
2023-01-15T00:02:34.562Z,77.20
2023-01-15T00:05:03.498Z,77.25
2023-01-15T00:07:32.023Z,77.85
2023-01-15T00:09:59.159Z,77.68
2023-01-15T00:12:26.273Z,78.22
2023-01-15T00:14:53.395Z,77.26
2023-01-15T00:17:20.503Z,77.89
2023-01-15T00:19:47.613Z,76.31
2023-01-15T00:22:14.732Z,76.75
2023-01-15T00:25:00.305Z,79.43
2023-01-15T00:27:41.047Z,80.67
2023-01-15T00:30:11.906Z,79.46
2023-01-15T00:32:39.967Z,79.51
2023-01-15T00:35:08.405Z,78.18
2023-01-15T00:37:35.472Z,76.48
2023-01-15T00:40:04.216Z,77.71
2023-01-15T00:42:31.403Z,78.16
2023-01-15T00:44:58.545Z,77.36
2023-01-15T00:47:25.967Z,76.01
2023-01-15T00:49:53.525Z,76.57
2023-01-15T00:52:20.686Z,77.06
2023-01-15T00:54:48.451Z,77.35
2023-01-15T00:57:15.595Z,76.68
2023-01-15T00:59:43.069Z,78.00
2023-01-15T01:02:10.328Z,77.51
2023-01-15T01:04:37.469Z,77.84
2023-01-15T01:07:06.297Z,78.06
2023-01-15T01:09:33.782Z,76.82
2023-01-15T01:12:01.024Z,76.24
2023-01-15T01:14:28.716Z,76.98
2023-01-15T01:16:56.997Z,77.72
2023-01-15T01:19:25.273Z,76.86
2023-01-15T01:21:53.097Z,76.77
2023-01-15T01:24:23.263Z,76.72
2023-01-15T01:26:53.389Z,76.25
2023-01-15T01:29:23.813Z,76.91
2023-01-15T01:31:51.461Z,76.92
2023-01-15T01:34:19.312Z,75.90
2023-01-15T01:36:46.713Z,74.90
2023-01-15T01:39:18.964Z,76.13
2023-01-15T01:41:47.431Z,76.48
2023-01-15T01:44:33.692Z,76.98
2023-01-15T01:47:05.448Z,77.18
2023-01-15T01:49:35.248Z,77.30
2023-01-15T01:52:07.303Z,77.08
2023-01-15T01:54:37.524Z,77.35
2023-01-15T01:57:06.645Z,76.72
2023-01-15T01:59:34.299Z,76.54
2023-01-15T02:02:01.613Z,76.78
2023-01-15T02:04:30.792Z,77.50
2023-01-15T02:07:01.270Z,76.88
2023-01-15T02:09:28.551Z,77.94
2023-01-15T02:12:01.175Z,76.69
2023-01-15T02:14:36.990Z,77.83
2023-01-15T02:17:49.296Z,77.55
2023-01-15T02:20:29.065Z,76.78
2023-01-15T02:23:12.106Z,76.72
2023-01-15T02:25:52.411Z,76.73
2023-01-15T02:28:25.800Z,77.15
2023-01-15T02:31:19.644Z,76.88
2023-01-15T02:33:59.768Z,75.73
2023-01-15T02:36:32.185Z,76.98
2023-01-15T02:39:06.123Z,76.19
2023-01-15T02:41:45.498Z,77.00
2023-01-15T02:44:16.791Z,76.89
2023-01-15T02:46:45.535Z,76.89
2023-01-15T02:49:17.387Z,76.72
2023-01-15T02:52:06.596Z,76.50
2023-01-15T02:55:14.149Z,75.29
2023-01-15T02:57:47.099Z,75.42
2023-01-15T03:00:19.407Z,76.36
2023-01-15T03:03:01.209Z,75.48
2023-01-15T03:05:34.030Z,77.17
2023-01-15T03:08:04.945Z,76.83
2023-01-15T03:11:01.644Z,76.79
2023-01-15T03:14:05.209Z,76.67
2023-01-15T03:16:46.244Z,76.57
2023-01-15T03:19:24.214Z,77.16
2023-01-15T03:22:07.697Z,77.73
2023-01-15T03:24:41.426Z,77.25
2023-01-15T03:27:09.489Z,76.78
2023-01-15T03:29:42.586Z,76.46
2023-01-15T03:32:09.822Z,77.54
2023-01-15T03:34:42.699Z,77.25
2023-01-15T03:37:13.650Z,76.91
2023-01-15T03:39:43.019Z,74.87
2023-01-15T03:42:37.700Z,76.06
2023-01-15T03:45:18.498Z,75.60
2023-01-15T03:47:55.007Z,75.98
2023-01-15T03:51:12.292Z,76.68
2023-01-15T03:53:46.139Z,74.99
2023-01-15T03:56:35.831Z,75.55
2023-01-15T03:59:12.913Z,75.38
2023-01-15T04:01:54.036Z,75.58
2023-01-15T04:04:25.492Z,75.29
2023-01-15T04:06:54.645Z,76.45
2023-01-15T04:09:22.870Z,76.76
2023-01-15T04:11:52.774Z,76.25
2023-01-15T04:14:19.993Z,75.63
2023-01-15T04:16:50.717Z,75.48
2023-01-15T04:19:18.049Z,75.89
2023-01-15T04:21:55.885Z,75.32
2023-01-15T04:24:23.272Z,75.72
2023-01-15T04:26:50.557Z,77.11
2023-01-15T04:29:17.738Z,76.52
2023-01-15T04:31:44.872Z,75.66
2023-01-15T04:34:11.970Z,74.67
2023-01-15T04:36:39.138Z,76.60
2023-01-15T04:39:06.465Z,76.19
2023-01-15T04:41:52.182Z,76.58
2023-01-15T04:44:19.272Z,77.16
2023-01-15T04:46:47.935Z,76.33
2023-01-15T04:49:17.738Z,74.98
2023-01-15T04:51:45.837Z,75.13
2023-01-15T04:54:14.992Z,76.00
2023-01-15T04:56:44.987Z,75.43
2023-01-15T04:59:12.252Z,77.51
2023-01-15T05:01:39.800Z,78.03
2023-01-15T05:04:07.781Z,76.79
2023-01-15T05:06:35.150Z,76.94
2023-01-15T05:09:03.850Z,77.44
2023-01-15T05:11:31.270Z,77.41
2023-01-15T05:13:58.426Z,77.17
2023-01-15T05:16:28.657Z,76.13
2023-01-15T05:18:59.749Z,75.88
2023-01-15T05:21:28.173Z,74.67
2023-01-15T05:23:57.606Z,75.87
2023-01-15T05:26:25.442Z,76.40
2023-01-15T05:28:57.550Z,76.89
2023-01-15T05:31:25.702Z,78.05
2023-01-15T05:33:54.580Z,76.78
2023-01-15T05:36:27.127Z,77.23
2023-01-15T05:38:55.443Z,77.36
2023-01-15T05:41:41.607Z,77.50
2023-01-15T05:44:11.367Z,77.59
2023-01-15T05:46:40.337Z,76.90
2023-01-15T05:49:10.413Z,77.80
2023-01-15T05:51:39.250Z,77.80
2023-01-15T05:54:08.522Z,78.25
2023-01-15T05:56:37.017Z,79.69
2023-01-15T05:59:05.470Z,79.92
2023-01-15T06:01:32.896Z,79.53
2023-01-15T06:04:01.535Z,79.19
2023-01-15T06:06:29.474Z,79.88
2023-01-15T06:08:56.627Z,80.67
2023-01-15T06:11:23.791Z,79.55
2023-01-15T06:13:51.104Z,78.77
2023-01-15T06:16:19.068Z,79.37
2023-01-15T06:18:46.440Z,79.79
2023-01-15T06:21:15.129Z,80.34
2023-01-15T06:23:42.907Z,79.49
2023-01-15T06:26:16.323Z,79.91
2023-01-15T06:28:44.626Z,79.44
2023-01-15T06:31:15.058Z,80.34
2023-01-15T06:33:42.626Z,78.24
2023-01-15T06:36:12.464Z,79.47
2023-01-15T06:38:40.589Z,78.88
2023-01-15T06:41:30.708Z,77.46
2023-01-15T06:44:16.301Z,77.42
2023-01-15T06:47:04.911Z,78.02
2023-01-15T06:49:33.848Z,76.48
2023-01-15T06:52:01.066Z,77.32
2023-01-15T06:54:28.923Z,78.25
2023-01-15T06:56:56.051Z,77.41
2023-01-15T06:59:23.245Z,77.28
2023-01-15T07:01:50.496Z,76.79
2023-01-15T07:04:17.647Z,75.92
2023-01-15T07:06:44.732Z,75.88
2023-01-15T07:09:12.593Z,77.94
2023-01-15T07:11:49.658Z,77.46
2023-01-15T07:14:23.012Z,77.69
2023-01-15T07:16:51.025Z,78.58
2023-01-15T07:19:19.267Z,77.58
2023-01-15T07:21:46.856Z,76.83
2023-01-15T07:24:14.541Z,77.39
2023-01-15T07:26:42.622Z,75.44
2023-01-15T07:29:10.195Z,76.02
2023-01-15T07:31:38.228Z,75.90
2023-01-15T07:34:05.501Z,75.64
2023-01-15T07:36:32.797Z,75.63
2023-01-15T07:39:00.105Z,74.85
2023-01-15T07:41:46.015Z,74.67
2023-01-15T07:44:35.189Z,74.98
2023-01-15T07:47:21.167Z,74.13
2023-01-15T07:49:49.841Z,73.84
2023-01-15T07:52:22.742Z,74.51
2023-01-15T07:54:50.728Z,74.23
2023-01-15T07:57:22.524Z,73.75
2023-01-15T07:59:50.599Z,73.54
2023-01-15T08:02:18.263Z,73.44
2023-01-15T08:04:45.616Z,73.27
2023-01-15T08:07:13.167Z,73.22
2023-01-15T08:09:40.345Z,71.94
2023-01-15T08:12:26.439Z,73.56
2023-01-15T08:15:12.068Z,74.86
2023-01-15T08:17:41.921Z,74.05
2023-01-15T08:20:18.964Z,73.42
2023-01-15T08:22:46.598Z,72.60
2023-01-15T08:25:17.256Z,73.08
2023-01-15T08:27:44.393Z,72.54
2023-01-15T08:30:18.003Z,73.25
2023-01-15T08:32:45.328Z,73.49
2023-01-15T08:35:13.322Z,73.54
2023-01-15T08:37:41.876Z,72.37
2023-01-15T08:40:10.947Z,71.54
2023-01-15T08:42:38.667Z,71.58
2023-01-15T08:45:06.424Z,71.24
2023-01-15T08:47:33.653Z,72.41
2023-01-15T08:50:00.821Z,72.71
2023-01-15T08:52:27.971Z,72.12
2023-01-15T08:54:55.146Z,71.74
2023-01-15T08:57:22.280Z,72.37
2023-01-15T08:59:49.412Z,72.02
2023-01-15T09:02:17.836Z,71.54
2023-01-15T09:04:44.984Z,72.42
2023-01-15T09:07:13.282Z,70.48
2023-01-15T09:09:40.523Z,71.74
2023-01-15T09:12:07.770Z,72.50
2023-01-15T09:14:59.059Z,72.38
2023-01-15T09:17:22.043Z,72.51
2023-01-15T09:19:49.136Z,72.49
2023-01-15T09:22:16.269Z,72.03
2023-01-15T09:24:43.358Z,72.49
2023-01-15T09:27:13.697Z,71.56
2023-01-15T09:29:40.823Z,72.50
2023-01-15T09:32:10.011Z,71.28
2023-01-15T09:34:37.381Z,72.90
2023-01-15T09:37:04.808Z,71.04
2023-01-15T09:39:32.074Z,72.10
2023-01-15T09:42:27.103Z,73.14
2023-01-15T09:45:02.953Z,71.32
2023-01-15T09:47:37.178Z,70.47
2023-01-15T09:50:10.440Z,69.31
2023-01-15T09:52:43.476Z,70.29
2023-01-15T09:55:32.129Z,70.37
2023-01-15T09:58:04.638Z,70.37
2023-01-15T10:00:46.132Z,70.62
2023-01-15T10:03:15.912Z,70.45
2023-01-15T10:06:06.754Z,71.07
2023-01-15T10:08:40.894Z,69.75
2023-01-15T10:11:20.174Z,71.23
2023-01-15T10:13:51.975Z,70.38
2023-01-15T10:16:24.995Z,69.07
2023-01-15T10:18:53.436Z,69.74
2023-01-15T10:21:26.330Z,68.90
2023-01-15T10:24:10.563Z,69.48
2023-01-15T10:26:43.133Z,69.50
2023-01-15T10:29:35.008Z,69.18
2023-01-15T10:32:13.875Z,70.06
2023-01-15T10:34:59.917Z,69.43
2023-01-15T10:37:45.842Z,68.69
2023-01-15T10:40:25.966Z,68.61
2023-01-15T10:43:21.123Z,67.27
2023-01-15T10:45:53.992Z,67.98
2023-01-15T10:48:57.184Z,68.28
2023-01-15T10:51:31.466Z,67.07
2023-01-15T10:54:07.238Z,67.14
2023-01-15T10:56:42.132Z,67.37
2023-01-15T10:59:49.423Z,67.46
2023-01-15T11:02:49.842Z,66.82
2023-01-15T11:05:21.550Z,67.45
2023-01-15T11:08:15.291Z,67.47
2023-01-15T11:10:41.398Z,66.70
2023-01-15T11:13:30.064Z,66.28
2023-01-15T11:16:16.071Z,67.63
2023-01-15T11:19:03.758Z,66.42
2023-01-15T11:21:31.914Z,67.49
2023-01-15T11:24:00.386Z,67.99
2023-01-15T11:26:30.605Z,67.74
2023-01-15T11:29:00.589Z,67.69
2023-01-15T11:31:38.542Z,66.71
2023-01-15T11:34:16.806Z,67.92
2023-01-15T11:36:43.955Z,66.99
2023-01-15T11:39:28.502Z,67.79
2023-01-15T11:42:22.183Z,68.99
2023-01-15T11:45:16.434Z,67.85
2023-01-15T11:48:12.687Z,69.35
2023-01-15T11:51:15.090Z,67.06
2023-01-15T11:53:48.380Z,67.05
2023-01-15T11:56:18.127Z,68.66
2023-01-15T11:58:51.206Z,67.76
2023-01-15T12:01:33.242Z,66.45
2023-01-15T12:04:08.175Z,67.92
2023-01-15T12:06:40.474Z,68.25
2023-01-15T12:09:25.553Z,68.03
2023-01-15T12:12:07.788Z,67.79
2023-01-15T12:14:56.277Z,68.08
2023-01-15T12:17:52.473Z,68.52
2023-01-15T12:20:41.790Z,68.40
2023-01-15T12:23:38.692Z,69.25
2023-01-15T12:26:25.209Z,68.84
2023-01-15T12:29:13.192Z,68.50
2023-01-15T12:31:43.925Z,67.90
2023-01-15T12:34:24.505Z,66.88
2023-01-15T12:37:13.386Z,68.21
2023-01-15T12:39:49.515Z,67.58
2023-01-15T12:42:54.820Z,67.62
2023-01-15T12:45:34.753Z,67.25
2023-01-15T12:48:13.847Z,66.91
2023-01-15T12:51:13.547Z,66.80
2023-01-15T12:53:52.157Z,67.32
2023-01-15T12:56:27.991Z,67.23
2023-01-15T12:58:55.070Z,66.88
2023-01-15T13:01:31.957Z,66.84
2023-01-15T13:04:15.182Z,67.14
2023-01-15T13:06:47.469Z,67.04
2023-01-15T13:09:29.965Z,67.27
2023-01-15T13:11:57.594Z,66.69
2023-01-15T13:14:24.847Z,66.89
2023-01-15T13:17:18.275Z,67.06
2023-01-15T13:20:12.430Z,66.85
2023-01-15T13:22:56.433Z,66.33
2023-01-15T13:25:54.600Z,66.53
2023-01-15T13:28:21.741Z,67.09
2023-01-15T13:31:00.374Z,66.65
2023-01-15T13:33:34.525Z,68.19
2023-01-15T13:36:11.154Z,67.49
2023-01-15T13:38:43.908Z,66.32
2023-01-15T13:41:38.667Z,67.22
2023-01-15T13:44:06.012Z,66.16
2023-01-15T13:46:33.217Z,67.56
2023-01-15T13:49:00.517Z,67.72
2023-01-15T13:51:32.197Z,68.77
2023-01-15T13:54:01.152Z,68.26
2023-01-15T13:56:36.143Z,68.14
2023-01-15T13:59:06.053Z,68.04
2023-01-15T14:01:35.664Z,67.62
2023-01-15T14:04:02.794Z,66.75
2023-01-15T14:06:41.933Z,68.57
2023-01-15T14:09:20.923Z,68.44
2023-01-15T14:12:11.962Z,67.79
2023-01-15T14:14:51.081Z,67.86
2023-01-15T14:17:34.764Z,67.92
2023-01-15T14:20:17.041Z,67.01
2023-01-15T14:23:01.699Z,67.78
2023-01-15T14:25:52.526Z,67.76
2023-01-15T14:28:38.176Z,67.91
2023-01-15T14:31:21.973Z,67.96
2023-01-15T14:34:33.522Z,67.63
2023-01-15T14:37:04.622Z,67.58
2023-01-15T14:39:42.336Z,67.86
2023-01-15T14:42:41.015Z,66.49
2023-01-15T14:45:18.227Z,66.40
2023-01-15T14:47:48.163Z,66.07
2023-01-15T14:50:33.842Z,66.78
2023-01-15T14:53:15.936Z,68.10
2023-01-15T14:56:14.238Z,67.50
2023-01-15T14:58:59.800Z,67.72
2023-01-15T15:01:50.556Z,67.46
2023-01-15T15:04:43.571Z,67.99
2023-01-15T15:07:17.260Z,66.88
2023-01-15T15:09:53.422Z,66.57
2023-01-15T15:12:41.073Z,66.78
2023-01-15T15:15:26.237Z,66.43
2023-01-15T15:18:22.465Z,67.91
2023-01-15T15:21:05.707Z,67.53
2023-01-15T15:23:56.518Z,69.76
2023-01-15T15:26:28.773Z,68.83
2023-01-15T15:29:11.668Z,69.00
2023-01-15T15:31:49.422Z,67.78
2023-01-15T15:34:40.357Z,67.43
2023-01-15T15:37:28.817Z,68.05
2023-01-15T15:40:03.473Z,68.17
2023-01-15T15:43:21.442Z,68.35
2023-01-15T15:46:11.812Z,68.79
2023-01-15T15:48:42.918Z,68.88
2023-01-15T15:51:29.231Z,68.81
2023-01-15T15:54:22.036Z,68.57
2023-01-15T15:57:12.680Z,70.84
2023-01-15T15:59:47.989Z,69.88
2023-01-15T16:02:19.891Z,69.05
2023-01-15T16:04:51.395Z,69.99
2023-01-15T16:07:26.486Z,69.65
2023-01-15T16:09:58.678Z,69.15
2023-01-15T16:12:30.257Z,71.44
2023-01-15T16:16:16.066Z,72.02
2023-01-15T16:18:45.695Z,70.73
2023-01-15T16:21:31.825Z,73.65
2023-01-15T16:24:07.245Z,74.33
2023-01-15T16:26:44.202Z,73.41
2023-01-15T16:29:21.730Z,72.05
2023-01-15T16:31:49.151Z,72.24
2023-01-15T16:34:22.519Z,73.06
2023-01-15T16:36:49.939Z,72.27
2023-01-15T16:39:39.681Z,73.16
2023-01-15T16:42:26.034Z,73.92
2023-01-15T16:44:57.197Z,73.03
2023-01-15T16:47:27.344Z,73.29
2023-01-15T16:50:16.870Z,72.01
2023-01-15T16:52:53.041Z,72.73
2023-01-15T16:55:44.779Z,72.89
2023-01-15T16:58:20.166Z,71.57
2023-01-15T17:00:53.322Z,72.87
2023-01-15T17:03:23.990Z,73.51
2023-01-15T17:06:01.851Z,72.92
2023-01-15T17:08:41.028Z,72.61
2023-01-15T17:11:20.065Z,72.39
2023-01-15T17:13:47.197Z,71.77
2023-01-15T17:16:23.499Z,71.36
2023-01-15T17:18:51.522Z,70.93
2023-01-15T17:21:27.658Z,73.59
2023-01-15T17:23:55.996Z,71.54
2023-01-15T17:26:25.390Z,72.25
2023-01-15T17:28:52.586Z,72.13
2023-01-15T17:31:24.804Z,71.42
2023-01-15T17:33:52.661Z,71.49
2023-01-15T17:36:20.682Z,70.56
2023-01-15T17:38:47.883Z,70.46
2023-01-15T17:41:17.224Z,69.92
2023-01-15T17:43:44.696Z,70.09
2023-01-15T17:46:12.453Z,70.25
2023-01-15T17:48:40.509Z,72.50
2023-01-15T17:51:12.593Z,70.62
2023-01-15T17:53:40.271Z,70.77
2023-01-15T17:56:27.014Z,70.87
2023-01-15T17:59:13.192Z,71.21
2023-01-15T18:02:02.298Z,71.16
2023-01-15T18:04:52.960Z,69.41
2023-01-15T18:07:23.522Z,68.86
2023-01-15T18:09:53.164Z,69.40
2023-01-15T18:12:20.429Z,70.10
2023-01-15T18:14:47.651Z,69.55
2023-01-15T18:17:14.834Z,70.03
2023-01-15T18:19:41.998Z,70.76
2023-01-15T18:22:10.549Z,71.87
2023-01-15T18:24:37.830Z,71.86
2023-01-15T18:27:05.013Z,70.64
2023-01-15T18:29:32.114Z,70.92
2023-01-15T18:31:59.265Z,70.50
2023-01-15T18:34:26.588Z,72.45
2023-01-15T18:36:55.820Z,73.09
2023-01-15T18:39:23.012Z,71.47
2023-01-15T18:41:50.070Z,69.54
2023-01-15T18:44:38.268Z,69.40
2023-01-15T18:47:14.426Z,71.13
2023-01-15T18:49:43.366Z,71.69
2023-01-15T18:52:30.926Z,71.48
2023-01-15T18:54:58.090Z,69.98
2023-01-15T18:57:26.175Z,69.30
2023-01-15T18:59:53.232Z,69.69
2023-01-15T19:02:21.680Z,69.98
2023-01-15T19:04:49.003Z,69.52
2023-01-15T19:07:17.295Z,69.65
2023-01-15T19:09:44.445Z,68.44
2023-01-15T19:12:12.050Z,69.23
2023-01-15T19:14:57.874Z,68.50
2023-01-15T19:17:44.488Z,68.28
2023-01-15T19:20:14.739Z,69.00
2023-01-15T19:23:00.108Z,69.71
2023-01-15T19:25:32.938Z,69.40
2023-01-15T19:28:00.045Z,69.52
2023-01-15T19:30:28.290Z,69.12
2023-01-15T19:32:56.525Z,69.67
2023-01-15T19:35:24.390Z,69.58
2023-01-15T19:37:53.316Z,69.13
2023-01-15T19:40:22.400Z,68.40
2023-01-15T19:43:12.312Z,69.57
2023-01-15T19:46:01.020Z,69.98
2023-01-15T19:48:46.579Z,70.00
2023-01-15T19:51:13.908Z,69.50
2023-01-15T19:53:40.994Z,71.00
2023-01-15T19:56:08.357Z,71.65
2023-01-15T19:58:37.234Z,71.96
2023-01-15T20:01:05.079Z,71.92
2023-01-15T20:03:32.346Z,71.35
2023-01-15T20:06:00.836Z,70.46
2023-01-15T20:08:30.854Z,70.83
2023-01-15T20:10:57.945Z,69.97
2023-01-15T20:13:43.887Z,70.37
2023-01-15T20:16:13.619Z,71.36
2023-01-15T20:18:41.251Z,71.70
2023-01-15T20:21:09.703Z,71.73
2023-01-15T20:23:37.482Z,70.67
2023-01-15T20:26:07.191Z,71.57
2023-01-15T20:28:36.076Z,71.86
2023-01-15T20:31:04.233Z,71.08
2023-01-15T20:33:31.377Z,71.37
2023-01-15T20:36:03.335Z,71.10
2023-01-15T20:38:31.066Z,70.36
2023-01-15T20:41:21.031Z,70.07
2023-01-15T20:44:06.725Z,70.08
2023-01-15T20:46:33.842Z,69.89
2023-01-15T20:49:19.645Z,70.30
2023-01-15T20:51:47.917Z,71.04
2023-01-15T20:54:15.015Z,70.65
2023-01-15T20:56:42.141Z,71.05
2023-01-15T20:59:09.289Z,71.13
2023-01-15T21:01:36.528Z,70.21
2023-01-15T21:04:03.745Z,70.27
2023-01-15T21:06:30.821Z,70.61
2023-01-15T21:08:57.953Z,69.19
2023-01-15T21:11:26.001Z,69.46
2023-01-15T21:13:54.263Z,69.61
2023-01-15T21:16:21.550Z,69.31
2023-01-15T21:18:49.576Z,68.94
2023-01-15T21:21:19.032Z,70.60
2023-01-15T21:23:46.481Z,69.42
2023-01-15T21:26:15.331Z,70.00
2023-01-15T21:28:42.552Z,69.09
2023-01-15T21:31:10.572Z,68.71
2023-01-15T21:33:39.901Z,69.88
2023-01-15T21:36:08.301Z,68.89
2023-01-15T21:38:35.442Z,69.15
2023-01-15T21:41:09.441Z,69.62
2023-01-15T21:43:55.666Z,70.10
2023-01-15T21:46:27.491Z,69.81
2023-01-15T21:48:58.902Z,69.80
2023-01-15T21:51:26.990Z,69.06
2023-01-15T21:53:54.520Z,69.45
2023-01-15T21:56:40.836Z,69.19
2023-01-15T21:59:11.498Z,68.17
2023-01-15T22:01:39.126Z,67.94
2023-01-15T22:04:06.571Z,68.66
2023-01-15T22:06:33.789Z,68.90
2023-01-15T22:09:01.028Z,67.91
2023-01-15T22:11:46.517Z,67.51
2023-01-15T22:14:24.659Z,68.28
2023-01-15T22:16:53.991Z,68.20
2023-01-15T22:19:23.443Z,69.19
2023-01-15T22:21:58.462Z,69.03
2023-01-15T22:24:27.705Z,69.02
2023-01-15T22:26:54.968Z,69.96
2023-01-15T22:29:52.303Z,69.93
2023-01-15T22:32:19.383Z,69.20
2023-01-15T22:34:47.823Z,69.07
2023-01-15T22:37:15.137Z,69.66
2023-01-15T22:39:42.340Z,69.95
2023-01-15T22:42:24.666Z,69.97
2023-01-15T22:44:52.406Z,70.25
2023-01-15T22:47:20.332Z,70.78
2023-01-15T22:49:47.591Z,69.94
2023-01-15T22:52:14.695Z,69.07
2023-01-15T22:54:45.002Z,68.90
2023-01-15T22:57:13.178Z,69.21
2023-01-15T22:59:40.422Z,69.10
2023-01-15T23:02:08.993Z,69.82
2023-01-15T23:04:36.246Z,69.73
2023-01-15T23:07:03.543Z,69.73
2023-01-15T23:09:30.751Z,70.01
2023-01-15T23:11:57.872Z,70.49
2023-01-15T23:14:24.998Z,69.09
2023-01-15T23:16:52.214Z,70.04
2023-01-15T23:19:20.504Z,69.90
2023-01-15T23:21:47.667Z,69.19
2023-01-15T23:24:14.735Z,69.29
2023-01-15T23:26:42.213Z,70.35
2023-01-15T23:29:09.374Z,71.75
2023-01-15T23:31:36.485Z,71.31
2023-01-15T23:34:03.755Z,71.55
2023-01-15T23:36:30.910Z,72.21
2023-01-15T23:38:58.227Z,72.24
2023-01-15T23:41:44.268Z,72.17
2023-01-15T23:44:38.494Z,71.23
2023-01-15T23:47:07.636Z,71.17
2023-01-15T23:49:34.891Z,70.42
2023-01-15T23:52:02.092Z,70.14
2023-01-15T23:54:31.566Z,71.32
2023-01-15T23:57:00.808Z,71.17
2023-01-15T23:59:28.911Z,72.24
